sensor_id;sensor_type;location;lat;lon;timestamp;pressure;altitude;pressure_sealevel;temperature;humidity
59435;BME280;45241;49.768;8.636;2022-11-15T00:00:51;99860.94;;;16.19;72.72
59435;BME280;45241;49.768;8.636;2022-11-15T00:03:17;99852.94;;;16.24;71.22
59435;BME280;45241;49.768;8.636;2022-11-15T00:05:43;99842.91;;;16.48;70.45
59435;BME280;45241;49.768;8.636;2022-11-15T00:08:08;99854.44;;;16.43;70.19
59435;BME280;45241;49.768;8.636;2022-11-15T00:10:34;99858.91;;;16.49;69.84
59435;BME280;45241;49.768;8.636;2022-11-15T00:12:59;99854.03;;;15.88;72.98
59435;BME280;45241;49.768;8.636;2022-11-15T00:15:24;99855.50;;;16.30;70.50
59435;BME280;45241;49.768;8.636;2022-11-15T00:17:49;99851.06;;;16.01;72.07
59435;BME280;45241;49.768;8.636;2022-11-15T00:20:15;99850.00;;;16.13;71.27
59435;BME280;45241;49.768;8.636;2022-11-15T00:22:40;99852.94;;;16.24;71.39
59435;BME280;45241;49.768;8.636;2022-11-15T00:25:05;99851.63;;;16.26;70.95
59435;BME280;45241;49.768;8.636;2022-11-15T00:27:30;99854.56;;;16.36;70.80
59435;BME280;45241;49.768;8.636;2022-11-15T00:29:55;99843.16;;;16.34;70.81
59435;BME280;45241;49.768;8.636;2022-11-15T00:32:21;99843.75;;;16.36;70.41
59435;BME280;45241;49.768;8.636;2022-11-15T00:34:46;99844.38;;;15.92;72.84
59435;BME280;45241;49.768;8.636;2022-11-15T00:37:11;99848.34;;;16.24;71.81
59435;BME280;45241;49.768;8.636;2022-11-15T00:39:36;99842.88;;;15.96;72.74
59435;BME280;45241;49.768;8.636;2022-11-15T00:42:01;99842.47;;;16.15;72.49
59435;BME280;45241;49.768;8.636;2022-11-15T00:44:26;99838.03;;;16.21;73.03
59435;BME280;45241;49.768;8.636;2022-11-15T00:46:52;99841.91;;;16.13;72.71
59435;BME280;45241;49.768;8.636;2022-11-15T00:49:17;99839.53;;;16.05;73.69
59435;BME280;45241;49.768;8.636;2022-11-15T00:51:42;99831.44;;;16.17;72.97
59435;BME280;45241;49.768;8.636;2022-11-15T00:54:07;99837.09;;;15.80;72.74
59435;BME280;45241;49.768;8.636;2022-11-15T00:56:32;99833.31;;;16.05;71.91
59435;BME280;45241;49.768;8.636;2022-11-15T00:58:58;99834.84;;;16.12;72.21
59435;BME280;45241;49.768;8.636;2022-11-15T01:01:23;99832.72;;;16.14;71.86
59435;BME280;45241;49.768;8.636;2022-11-15T01:03:48;99833.22;;;15.88;73.01
59435;BME280;45241;49.768;8.636;2022-11-15T01:06:13;99818.97;;;16.16;72.40
59435;BME280;45241;49.768;8.636;2022-11-15T01:08:39;99802.72;;;16.28;72.12
59435;BME280;45241;49.768;8.636;2022-11-15T01:11:06;99805.66;;;16.26;73.14
59435;BME280;45241;49.768;8.636;2022-11-15T01:13:32;99807.09;;;16.05;73.93
59435;BME280;45241;49.768;8.636;2022-11-15T01:15:57;99801.31;;;16.25;73.70
59435;BME280;45241;49.768;8.636;2022-11-15T01:18:22;99803.31;;;16.18;74.46
59435;BME280;45241;49.768;8.636;2022-11-15T01:20:48;99799.75;;;16.41;73.57
59435;BME280;45241;49.768;8.636;2022-11-15T01:23:13;99805.16;;;16.41;74.16
59435;BME280;45241;49.768;8.636;2022-11-15T01:25:38;99796.13;;;16.35;74.43
59435;BME280;45241;49.768;8.636;2022-11-15T01:28:03;99795.19;;;16.18;74.49
59435;BME280;45241;49.768;8.636;2022-11-15T01:30:28;99794.19;;;16.07;75.23
59435;BME280;45241;49.768;8.636;2022-11-15T01:32:53;99800.63;;;16.06;74.05
59435;BME280;45241;49.768;8.636;2022-11-15T01:35:20;99801.13;;;15.68;76.88
59435;BME280;45241;49.768;8.636;2022-11-15T01:37:45;99803.03;;;15.56;77.89
59435;BME280;45241;49.768;8.636;2022-11-15T01:40:11;99796.78;;;15.79;76.15
59435;BME280;45241;49.768;8.636;2022-11-15T01:42:36;99807.00;;;15.89;75.90
59435;BME280;45241;49.768;8.636;2022-11-15T01:45:01;99804.31;;;16.00;75.56
59435;BME280;45241;49.768;8.636;2022-11-15T01:47:31;99806.53;;;15.92;75.49
59435;BME280;45241;49.768;8.636;2022-11-15T01:49:59;99802.91;;;15.86;76.25
59435;BME280;45241;49.768;8.636;2022-11-15T01:52:26;99800.31;;;15.91;76.15
59435;BME280;45241;49.768;8.636;2022-11-15T01:54:54;99793.75;;;15.87;76.38
59435;BME280;45241;49.768;8.636;2022-11-15T01:57:21;99799.47;;;16.02;76.14
59435;BME280;45241;49.768;8.636;2022-11-15T01:59:47;99805.13;;;16.01;76.54
59435;BME280;45241;49.768;8.636;2022-11-15T02:02:12;99794.22;;;15.96;76.76
59435;BME280;45241;49.768;8.636;2022-11-15T02:04:42;99788.91;;;15.77;76.81
59435;BME280;45241;49.768;8.636;2022-11-15T02:07:08;99789.97;;;15.65;79.26
59435;BME280;45241;49.768;8.636;2022-11-15T02:09:35;99786.78;;;15.68;76.98
59435;BME280;45241;49.768;8.636;2022-11-15T02:12:01;99768.91;;;16.02;74.93
59435;BME280;45241;49.768;8.636;2022-11-15T02:14:26;99781.97;;;15.93;76.23
59435;BME280;45241;49.768;8.636;2022-11-15T02:16:59;99780.22;;;15.87;75.59
59435;BME280;45241;49.768;8.636;2022-11-15T02:19:30;99765.63;;;16.00;74.87
59435;BME280;45241;49.768;8.636;2022-11-15T02:32:30;99749.22;;;15.54;74.56
59435;BME280;45241;49.768;8.636;2022-11-15T02:40:11;99750.31;;;15.00;76.35
59435;BME280;45241;49.768;8.636;2022-11-15T02:42:48;99749.56;;;14.81;76.90
59435;BME280;45241;49.768;8.636;2022-11-15T02:45:39;99739.88;;;15.15;75.08
59435;BME280;45241;49.768;8.636;2022-11-15T02:48:06;99741.47;;;15.58;73.81
59435;BME280;45241;49.768;8.636;2022-11-15T02:50:32;99740.88;;;15.44;73.64
59435;BME280;45241;49.768;8.636;2022-11-15T02:52:58;99750.31;;;15.00;76.46
59435;BME280;45241;49.768;8.636;2022-11-15T02:55:33;99741.78;;;15.50;74.05
59435;BME280;45241;49.768;8.636;2022-11-15T03:00:37;99742.84;;;15.37;74.59
59435;BME280;45241;49.768;8.636;2022-11-15T03:06:09;99728.28;;;15.38;74.57
59435;BME280;45241;49.768;8.636;2022-11-15T03:08:45;99717.47;;;15.15;73.76
59435;BME280;45241;49.768;8.636;2022-11-15T03:11:16;99721.38;;;15.54;73.75
59435;BME280;45241;49.768;8.636;2022-11-15T03:13:53;99720.19;;;15.38;74.64
59435;BME280;45241;49.768;8.636;2022-11-15T03:16:31;99722.66;;;15.40;74.42
59435;BME280;45241;49.768;8.636;2022-11-15T03:19:04;99723.25;;;14.35;78.80
59435;BME280;45241;49.768;8.636;2022-11-15T03:21:31;99720.06;;;15.10;74.63
59435;BME280;45241;49.768;8.636;2022-11-15T03:23:58;99722.41;;;15.06;76.22
59435;BME280;45241;49.768;8.636;2022-11-15T03:26:26;99727.59;;;15.31;75.20
59435;BME280;45241;49.768;8.636;2022-11-15T03:28:54;99721.81;;;15.16;75.21
59435;BME280;45241;49.768;8.636;2022-11-15T03:31:21;99725.94;;;15.30;75.55
59435;BME280;45241;49.768;8.636;2022-11-15T03:34:06;99718.19;;;15.10;75.58
59435;BME280;45241;49.768;8.636;2022-11-15T03:36:33;99719.34;;;15.26;75.16
59435;BME280;45241;49.768;8.636;2022-11-15T03:39:00;99718.25;;;14.80;76.83
59435;BME280;45241;49.768;8.636;2022-11-15T03:41:32;99721.47;;;15.36;75.00
59435;BME280;45241;49.768;8.636;2022-11-15T03:44:04;99718.44;;;15.20;75.30
59435;BME280;45241;49.768;8.636;2022-11-15T03:46:32;99724.03;;;15.07;75.44
59435;BME280;45241;49.768;8.636;2022-11-15T03:49:09;99719.16;;;14.74;76.72
59435;BME280;45241;49.768;8.636;2022-11-15T03:51:36;99722.03;;;15.14;75.96
59435;BME280;45241;49.768;8.636;2022-11-15T03:54:04;99723.47;;;15.28;75.13
59435;BME280;45241;49.768;8.636;2022-11-15T03:56:29;99718.91;;;15.17;76.03
59435;BME280;45241;49.768;8.636;2022-11-15T03:58:55;99719.25;;;15.33;75.93
59435;BME280;45241;49.768;8.636;2022-11-15T04:01:20;99721.94;;;15.09;75.52
59435;BME280;45241;49.768;8.636;2022-11-15T04:03:45;99723.34;;;15.35;74.91
59435;BME280;45241;49.768;8.636;2022-11-15T04:06:10;99723.13;;;15.25;76.57
59435;BME280;45241;49.768;8.636;2022-11-15T04:08:35;99729.91;;;15.27;76.46
59435;BME280;45241;49.768;8.636;2022-11-15T04:11:01;99730.56;;;14.88;78.72
59435;BME280;45241;49.768;8.636;2022-11-15T04:13:26;99727.81;;;15.06;78.48
59435;BME280;45241;49.768;8.636;2022-11-15T04:15:51;99723.47;;;15.17;77.57
59435;BME280;45241;49.768;8.636;2022-11-15T04:18:16;99726.06;;;15.23;76.82
59435;BME280;45241;49.768;8.636;2022-11-15T04:20:42;99721.47;;;15.36;75.74
59435;BME280;45241;49.768;8.636;2022-11-15T04:23:25;99713.97;;;15.38;76.88
59435;BME280;45241;49.768;8.636;2022-11-15T04:26:10;99718.53;;;15.49;75.89
59435;BME280;45241;49.768;8.636;2022-11-15T04:28:36;99719.59;;;15.13;76.70
59435;BME280;45241;49.768;8.636;2022-11-15T04:31:21;99719.34;;;15.14;77.96
59435;BME280;45241;49.768;8.636;2022-11-15T04:33:46;99722.19;;;15.19;77.63
59435;BME280;45241;49.768;8.636;2022-11-15T04:36:11;99727.53;;;14.96;79.00
59435;BME280;45241;49.768;8.636;2022-11-15T04:38:55;99724.25;;;14.94;77.84
59435;BME280;45241;49.768;8.636;2022-11-15T04:41:20;99718.31;;;15.50;75.79
59435;BME280;45241;49.768;8.636;2022-11-15T04:43:46;99722.84;;;15.03;78.66
59435;BME280;45241;49.768;8.636;2022-11-15T04:46:11;99731.59;;;14.75;80.11
59435;BME280;45241;49.768;8.636;2022-11-15T04:48:36;99728.28;;;15.26;77.57
59435;BME280;45241;49.768;8.636;2022-11-15T04:51:01;99717.25;;;15.40;77.75
59435;BME280;45241;49.768;8.636;2022-11-15T04:53:26;99717.69;;;15.13;81.70
59435;BME280;45241;49.768;8.636;2022-11-15T04:55:51;99716.66;;;15.38;81.09
59435;BME280;45241;49.768;8.636;2022-11-15T04:58:17;99720.91;;;15.45;81.08
59435;BME280;45241;49.768;8.636;2022-11-15T05:00:42;99721.13;;;15.32;82.03
59435;BME280;45241;49.768;8.636;2022-11-15T05:03:08;99718.50;;;14.90;85.64
59435;BME280;45241;49.768;8.636;2022-11-15T05:05:52;99720.00;;;14.86;86.23
59435;BME280;45241;49.768;8.636;2022-11-15T05:08:17;99717.69;;;15.13;84.21
59435;BME280;45241;49.768;8.636;2022-11-15T05:10:42;99710.91;;;15.46;81.50
59435;BME280;45241;49.768;8.636;2022-11-15T05:13:07;99707.03;;;15.07;83.98
59435;BME280;45241;49.768;8.636;2022-11-15T05:15:33;99707.59;;;14.97;83.43
59435;BME280;45241;49.768;8.636;2022-11-15T05:17:58;99707.72;;;14.90;86.19
59435;BME280;45241;49.768;8.636;2022-11-15T05:20:25;99708.75;;;14.78;85.44
59435;BME280;45241;49.768;8.636;2022-11-15T05:22:50;99702.44;;;15.07;84.07
59435;BME280;45241;49.768;8.636;2022-11-15T05:25:15;99706.44;;;15.40;82.35
59435;BME280;45241;49.768;8.636;2022-11-15T05:27:41;99696.81;;;14.97;85.18
59435;BME280;45241;49.768;8.636;2022-11-15T05:30:06;99701.06;;;15.16;83.89
59435;BME280;45241;49.768;8.636;2022-11-15T05:32:31;99699.75;;;14.95;85.52
59435;BME280;45241;49.768;8.636;2022-11-15T05:34:57;99691.75;;;15.12;84.97
59435;BME280;45241;49.768;8.636;2022-11-15T05:37:22;99697.00;;;14.84;87.41
59435;BME280;45241;49.768;8.636;2022-11-15T05:39:47;99693.59;;;14.65;89.14
59435;BME280;45241;49.768;8.636;2022-11-15T05:42:13;99690.34;;;14.98;84.20
59435;BME280;45241;49.768;8.636;2022-11-15T05:44:39;99690.94;;;15.00;87.71
59435;BME280;45241;49.768;8.636;2022-11-15T05:47:07;99685.91;;;15.27;85.25
59435;BME280;45241;49.768;8.636;2022-11-15T05:49:34;99682.25;;;15.45;83.63
59435;BME280;45241;49.768;8.636;2022-11-15T05:52:00;99677.31;;;15.42;83.46
59435;BME280;45241;49.768;8.636;2022-11-15T05:54:25;99682.75;;;15.18;86.11
59435;BME280;45241;49.768;8.636;2022-11-15T05:56:51;99680.31;;;14.52;90.66
59435;BME280;45241;49.768;8.636;2022-11-15T05:59:17;99677.81;;;14.50;92.25
59435;BME280;45241;49.768;8.636;2022-11-15T06:01:43;99673.59;;;14.43;93.06
59435;BME280;45241;49.768;8.636;2022-11-15T06:04:08;99686.63;;;14.57;91.29
59435;BME280;45241;49.768;8.636;2022-11-15T06:06:33;99687.53;;;14.40;93.29
59435;BME280;45241;49.768;8.636;2022-11-15T06:08:58;99680.59;;;14.97;89.46
59435;BME280;45241;49.768;8.636;2022-11-15T06:11:24;99676.03;;;15.09;87.34
59435;BME280;45241;49.768;8.636;2022-11-15T06:13:49;99686.56;;;14.87;88.72
59435;BME280;45241;49.768;8.636;2022-11-15T06:16:14;99690.63;;;14.55;90.54
59435;BME280;45241;49.768;8.636;2022-11-15T06:18:39;99694.28;;;14.72;90.09
59435;BME280;45241;49.768;8.636;2022-11-15T06:21:05;99685.28;;;15.02;86.62
59435;BME280;45241;49.768;8.636;2022-11-15T06:23:33;99686.81;;;14.97;87.21
59435;BME280;45241;49.768;8.636;2022-11-15T06:25:59;99688.25;;;15.12;86.04
59435;BME280;45241;49.768;8.636;2022-11-15T06:28:28;99690.13;;;15.11;85.92
59435;BME280;45241;49.768;8.636;2022-11-15T06:30:53;99683.88;;;14.87;87.91
59435;BME280;45241;49.768;8.636;2022-11-15T06:33:18;99684.13;;;15.09;85.19
59435;BME280;45241;49.768;8.636;2022-11-15T06:35:43;99684.38;;;14.96;86.36
59435;BME280;45241;49.768;8.636;2022-11-15T06:38:09;99687.41;;;15.00;85.88
59435;BME280;45241;49.768;8.636;2022-11-15T06:40:35;99693.16;;;14.50;90.06
59435;BME280;45241;49.768;8.636;2022-11-15T06:43:00;99695.09;;;14.31;91.33
59435;BME280;45241;49.768;8.636;2022-11-15T06:45:25;99688.75;;;14.55;88.51
59435;BME280;45241;49.768;8.636;2022-11-15T06:47:51;99698.72;;;14.55;87.86
59435;BME280;45241;49.768;8.636;2022-11-15T06:50:16;99705.91;;;14.13;90.18
59435;BME280;45241;49.768;8.636;2022-11-15T06:52:41;99704.84;;;13.95;91.44
59435;BME280;45241;49.768;8.636;2022-11-15T06:55:07;99700.00;;;13.86;93.05
59435;BME280;45241;49.768;8.636;2022-11-15T06:57:32;99700.53;;;14.13;90.77
59435;BME280;45241;49.768;8.636;2022-11-15T06:59:58;99704.53;;;14.22;89.47
59435;BME280;45241;49.768;8.636;2022-11-15T07:02:23;99703.25;;;14.43;87.55
59435;BME280;45241;49.768;8.636;2022-11-15T07:04:48;99701.38;;;14.43;86.94
59435;BME280;45241;49.768;8.636;2022-11-15T07:07:13;99697.22;;;14.29;88.39
59435;BME280;45241;49.768;8.636;2022-11-15T07:09:38;99700.44;;;14.49;86.67
59435;BME280;45241;49.768;8.636;2022-11-15T07:12:04;99691.63;;;14.42;86.73
59435;BME280;45241;49.768;8.636;2022-11-15T07:14:29;99693.50;;;14.42;87.45
59435;BME280;45241;49.768;8.636;2022-11-15T07:16:54;99695.44;;;14.53;86.58
59435;BME280;45241;49.768;8.636;2022-11-15T07:19:19;99696.31;;;13.98;91.27
59435;BME280;45241;49.768;8.636;2022-11-15T07:21:45;99694.13;;;14.55;86.58
59435;BME280;45241;49.768;8.636;2022-11-15T07:24:10;99700.50;;;14.31;87.38
59435;BME280;45241;49.768;8.636;2022-11-15T07:26:35;99695.47;;;14.64;85.60
59435;BME280;45241;49.768;8.636;2022-11-15T07:29:00;99697.47;;;14.69;86.01
59435;BME280;45241;49.768;8.636;2022-11-15T07:31:25;99692.97;;;14.51;87.38
59435;BME280;45241;49.768;8.636;2022-11-15T07:33:50;99687.94;;;14.55;87.23
59435;BME280;45241;49.768;8.636;2022-11-15T07:36:16;99689.06;;;14.47;87.12
59435;BME280;45241;49.768;8.636;2022-11-15T07:38:41;99685.41;;;14.23;90.66
59435;BME280;45241;49.768;8.636;2022-11-15T07:41:07;99688.66;;;14.32;90.39
59435;BME280;45241;49.768;8.636;2022-11-15T07:43:32;99685.41;;;13.57;95.78
59435;BME280;45241;49.768;8.636;2022-11-15T07:45:58;99677.78;;;13.72;94.12
59435;BME280;45241;49.768;8.636;2022-11-15T07:48:24;99681.66;;;13.94;92.37
59435;BME280;45241;49.768;8.636;2022-11-15T07:50:49;99688.19;;;14.35;90.36
59435;BME280;45241;49.768;8.636;2022-11-15T07:53:14;99686.59;;;13.97;93.62
59435;BME280;45241;49.768;8.636;2022-11-15T07:55:40;99677.25;;;14.00;94.32
59435;BME280;45241;49.768;8.636;2022-11-15T07:58:06;99675.09;;;14.50;90.15
59435;BME280;45241;49.768;8.636;2022-11-15T08:00:32;99689.22;;;14.52;90.67
59435;BME280;45241;49.768;8.636;2022-11-15T08:03:31;99680.38;;;14.45;90.69
59435;BME280;45241;49.768;8.636;2022-11-15T08:05:50;99696.88;;;13.89;95.84
59435;BME280;45241;49.768;8.636;2022-11-15T08:08:16;99685.41;;;14.23;92.96
59435;BME280;45241;49.768;8.636;2022-11-15T08:10:41;99689.34;;;14.09;93.72
59435;BME280;45241;49.768;8.636;2022-11-15T08:13:08;99682.66;;;14.12;90.47
59435;BME280;45241;49.768;8.636;2022-11-15T08:15:33;99691.00;;;14.28;93.37
59435;BME280;45241;49.768;8.636;2022-11-15T08:18:00;99695.38;;;13.93;95.58
59435;BME280;45241;49.768;8.636;2022-11-15T08:20:26;99689.47;;;14.32;88.94
59435;BME280;45241;49.768;8.636;2022-11-15T08:22:54;99681.44;;;14.44;90.37
59435;BME280;45241;49.768;8.636;2022-11-15T08:25:19;99682.44;;;14.31;94.04
59435;BME280;45241;49.768;8.636;2022-11-15T08:27:45;99676.06;;;14.56;90.43
59435;BME280;45241;49.768;8.636;2022-11-15T08:30:10;99676.50;;;14.41;93.05
59435;BME280;45241;49.768;8.636;2022-11-15T08:32:36;99685.06;;;14.50;93.06
59435;BME280;45241;49.768;8.636;2022-11-15T08:35:01;99679.72;;;14.61;92.78
59435;BME280;45241;49.768;8.636;2022-11-15T08:37:26;99676.78;;;14.51;94.97
59435;BME280;45241;49.768;8.636;2022-11-15T08:39:51;99681.16;;;14.34;92.37
59435;BME280;45241;49.768;8.636;2022-11-15T08:42:17;99672.84;;;14.35;92.41
59435;BME280;45241;49.768;8.636;2022-11-15T08:44:42;99681.25;;;14.27;90.41
59435;BME280;45241;49.768;8.636;2022-11-15T08:47:07;99682.97;;;14.22;91.57
59435;BME280;45241;49.768;8.636;2022-11-15T08:49:35;99673.81;;;14.41;91.12
59435;BME280;45241;49.768;8.636;2022-11-15T08:52:00;99679.16;;;14.11;90.74
59435;BME280;45241;49.768;8.636;2022-11-15T08:54:26;99669.88;;;14.55;90.29
59435;BME280;45241;49.768;8.636;2022-11-15T08:56:51;99686.25;;;14.42;90.14
59435;BME280;45241;49.768;8.636;2022-11-15T08:59:16;99686.88;;;14.26;91.36
59435;BME280;45241;49.768;8.636;2022-11-15T09:01:41;99678.00;;;14.67;91.20
59435;BME280;45241;49.768;8.636;2022-11-15T09:04:06;99677.78;;;14.92;90.41
59435;BME280;45241;49.768;8.636;2022-11-15T09:06:32;99684.66;;;14.76;91.07
59435;BME280;45241;49.768;8.636;2022-11-15T09:08:57;99679.47;;;14.51;95.12
59435;BME280;45241;49.768;8.636;2022-11-15T09:11:22;99685.00;;;14.56;92.93
59435;BME280;45241;49.768;8.636;2022-11-15T09:13:48;99673.53;;;14.73;93.52
59435;BME280;45241;49.768;8.636;2022-11-15T09:16:13;99668.88;;;14.80;92.17
59435;BME280;45241;49.768;8.636;2022-11-15T09:18:40;99670.06;;;15.07;90.74
59435;BME280;45241;49.768;8.636;2022-11-15T09:21:05;99662.19;;;15.17;92.30
59435;BME280;45241;49.768;8.636;2022-11-15T09:23:30;99666.41;;;15.25;92.69
59435;BME280;45241;49.768;8.636;2022-11-15T09:26:02;99673.44;;;15.14;92.71
59435;BME280;45241;49.768;8.636;2022-11-15T09:28:28;99664.31;;;15.04;93.12
59435;BME280;45241;49.768;8.636;2022-11-15T09:31:03;99669.25;;;15.07;94.59
59435;BME280;45241;49.768;8.636;2022-11-15T09:33:28;99667.47;;;15.12;93.85
59435;BME280;45241;49.768;8.636;2022-11-15T09:35:54;99663.25;;;15.16;94.38
59435;BME280;45241;49.768;8.636;2022-11-15T09:38:19;99660.19;;;15.36;93.73
59435;BME280;45241;49.768;8.636;2022-11-15T09:40:45;99667.47;;;15.12;94.50
59435;BME280;45241;49.768;8.636;2022-11-15T09:45:55;99658.06;;;15.26;94.17
59435;BME280;45241;49.768;8.636;2022-11-15T09:51:00;99665.72;;;15.30;94.89
59435;BME280;45241;49.768;8.636;2022-11-15T09:53:32;99664.97;;;14.87;95.60
59435;BME280;45241;49.768;8.636;2022-11-15T09:56:00;99667.94;;;15.09;96.01
59435;BME280;45241;49.768;8.636;2022-11-15T10:01:16;99658.56;;;15.23;93.56
59435;BME280;45241;49.768;8.636;2022-11-15T10:03:44;99657.03;;;14.92;94.95
59435;BME280;45241;49.768;8.636;2022-11-15T10:06:21;99652.91;;;15.37;94.58
59435;BME280;45241;49.768;8.636;2022-11-15T10:11:22;99644.22;;;15.35;93.97
59435;BME280;45241;49.768;8.636;2022-11-15T10:13:49;99633.66;;;15.21;94.41
59435;BME280;45241;49.768;8.636;2022-11-15T10:16:23;99638.81;;;15.35;93.64
59435;BME280;45241;49.768;8.636;2022-11-15T10:21:39;99630.94;;;15.45;91.96
59435;BME280;45241;49.768;8.636;2022-11-15T10:24:12;99629.97;;;15.51;90.56
59435;BME280;45241;49.768;8.636;2022-11-15T10:26:37;99628.34;;;15.38;93.49
59435;BME280;45241;49.768;8.636;2022-11-15T10:29:03;99628.03;;;15.35;92.50
59435;BME280;45241;49.768;8.636;2022-11-15T10:31:28;99613.44;;;15.36;92.50
59435;BME280;45241;49.768;8.636;2022-11-15T10:33:59;99622.63;;;15.35;94.05
59435;BME280;45241;49.768;8.636;2022-11-15T10:36:34;99620.25;;;15.26;94.22
59435;BME280;45241;49.768;8.636;2022-11-15T10:38:59;99611.25;;;15.21;94.42
59435;BME280;45241;49.768;8.636;2022-11-15T10:44:03;99609.03;;;15.30;93.18
59435;BME280;45241;49.768;8.636;2022-11-15T10:46:35;99596.50;;;15.52;92.08
59435;BME280;45241;49.768;8.636;2022-11-15T10:51:48;99600.03;;;15.41;92.83
59435;BME280;45241;49.768;8.636;2022-11-15T10:54:24;99591.38;;;15.39;94.26
59435;BME280;45241;49.768;8.636;2022-11-15T10:56:52;99590.19;;;15.46;92.99
59435;BME280;45241;49.768;8.636;2022-11-15T10:59:29;99580.69;;;15.55;92.59
59435;BME280;45241;49.768;8.636;2022-11-15T11:01:55;99578.44;;;15.41;94.13
59435;BME280;45241;49.768;8.636;2022-11-15T11:04:20;99574.56;;;15.60;92.23
59435;BME280;45241;49.768;8.636;2022-11-15T11:06:46;99572.25;;;15.28;93.10
59435;BME280;45241;49.768;8.636;2022-11-15T11:09:19;99568.06;;;15.73;93.63
59435;BME280;45241;49.768;8.636;2022-11-15T11:11:50;99562.69;;;15.61;92.20
59435;BME280;45241;49.768;8.636;2022-11-15T11:14:20;99563.25;;;15.63;93.98
59435;BME280;45241;49.768;8.636;2022-11-15T11:24:40;99541.19;;;16.11;87.57
59435;BME280;45241;49.768;8.636;2022-11-15T11:35:08;99516.94;;;16.17;84.73
59435;BME280;45241;49.768;8.636;2022-11-15T11:37:46;99522.94;;;16.35;83.73
59435;BME280;45241;49.768;8.636;2022-11-15T11:42:58;99511.44;;;16.62;80.89
59435;BME280;45241;49.768;8.636;2022-11-15T11:48:20;99506.53;;;16.25;80.65
59435;BME280;45241;49.768;8.636;2022-11-15T11:50:48;99505.81;;;16.47;80.29
59435;BME280;45241;49.768;8.636;2022-11-15T11:55:59;99501.38;;;16.40;80.19
59435;BME280;45241;49.768;8.636;2022-11-15T12:00:54;99485.44;;;16.44;78.90
59435;BME280;45241;49.768;8.636;2022-11-15T12:03:28;99485.75;;;16.64;80.18
59435;BME280;45241;49.768;8.636;2022-11-15T12:10:53;99471.97;;;17.05;78.25
59435;BME280;45241;49.768;8.636;2022-11-15T12:13:21;99474.81;;;16.93;77.49
59435;BME280;45241;49.768;8.636;2022-11-15T12:16:00;99461.81;;;16.56;79.41
59435;BME280;45241;49.768;8.636;2022-11-15T12:18:28;99464.38;;;16.63;78.46
59435;BME280;45241;49.768;8.636;2022-11-15T12:21:01;99457.59;;;16.27;80.65
59435;BME280;45241;49.768;8.636;2022-11-15T12:23:29;99456.41;;;16.56;79.43
59435;BME280;45241;49.768;8.636;2022-11-15T12:28:35;99447.19;;;16.35;78.53
59435;BME280;45241;49.768;8.636;2022-11-15T12:31:10;99441.28;;;16.38;78.67
59435;BME280;45241;49.768;8.636;2022-11-15T12:33:39;99432.78;;;16.68;78.04
59435;BME280;45241;49.768;8.636;2022-11-15T12:36:08;99435.72;;;16.67;76.60
59435;BME280;45241;49.768;8.636;2022-11-15T12:38:53;99429.50;;;16.66;78.27
59435;BME280;45241;49.768;8.636;2022-11-15T12:41:19;99433.59;;;16.69;76.49
59435;BME280;45241;49.768;8.636;2022-11-15T12:43:45;99435.28;;;16.53;79.24
59435;BME280;45241;49.768;8.636;2022-11-15T12:46:12;99428.09;;;16.81;77.79
59435;BME280;45241;49.768;8.636;2022-11-15T12:51:03;99435.16;;;16.65;78.80
59435;BME280;45241;49.768;8.636;2022-11-15T12:53:29;99424.84;;;16.62;82.36
59435;BME280;45241;49.768;8.636;2022-11-15T12:58:42;99416.78;;;16.67;78.12
59435;BME280;45241;49.768;8.636;2022-11-15T13:01:08;99423.56;;;16.86;78.84
59435;BME280;45241;49.768;8.636;2022-11-15T13:03:34;99409.22;;;16.69;80.58
59435;BME280;45241;49.768;8.636;2022-11-15T13:06:00;99413.38;;;16.55;82.02
59435;BME280;45241;49.768;8.636;2022-11-15T13:08:35;99408.25;;;16.36;83.83
59435;BME280;45241;49.768;8.636;2022-11-15T13:11:27;99405.91;;;16.62;81.48
59435;BME280;45241;49.768;8.636;2022-11-15T13:13:45;99413.16;;;16.39;83.16
59435;BME280;45241;49.768;8.636;2022-11-15T13:16:11;99413.78;;;16.63;82.46
59435;BME280;45241;49.768;8.636;2022-11-15T13:18:42;99410.16;;;16.58;80.44
59435;BME280;45241;49.768;8.636;2022-11-15T13:21:19;99400.88;;;16.49;82.03
59435;BME280;45241;49.768;8.636;2022-11-15T13:24:03;99400.03;;;16.09;83.58
59435;BME280;45241;49.768;8.636;2022-11-15T13:26:28;99404.41;;;16.71;81.28
59435;BME280;45241;49.768;8.636;2022-11-15T13:28:53;99401.06;;;16.25;83.63
59435;BME280;45241;49.768;8.636;2022-11-15T13:33:52;99382.91;;;16.21;83.50
59435;BME280;45241;49.768;8.636;2022-11-15T13:36:25;99379.66;;;16.40;80.04
59435;BME280;45241;49.768;8.636;2022-11-15T13:39:05;99373.56;;;16.50;80.97
59435;BME280;45241;49.768;8.636;2022-11-15T13:41:32;99365.03;;;16.41;81.25
59435;BME280;45241;49.768;8.636;2022-11-15T13:43:58;99364.75;;;16.38;81.02
59435;BME280;45241;49.768;8.636;2022-11-15T13:46:25;99359.34;;;16.60;79.40
59435;BME280;45241;49.768;8.636;2022-11-15T13:48:54;99360.47;;;16.64;80.32
59435;BME280;45241;49.768;8.636;2022-11-15T13:56:44;99351.84;;;16.67;78.39
59435;BME280;45241;49.768;8.636;2022-11-15T13:59:13;99342.91;;;16.66;77.31
59435;BME280;45241;49.768;8.636;2022-11-15T14:01:40;99342.97;;;16.93;77.58
59435;BME280;45241;49.768;8.636;2022-11-15T14:04:10;99326.53;;;17.00;79.07
59435;BME280;45241;49.768;8.636;2022-11-15T14:06:42;99326.78;;;16.98;77.67
59435;BME280;45241;49.768;8.636;2022-11-15T14:11:34;99321.94;;;16.73;79.40
59435;BME280;45241;49.768;8.636;2022-11-15T14:14:02;99325.03;;;16.65;79.78
59435;BME280;45241;49.768;8.636;2022-11-15T14:16:36;99306.28;;;16.81;78.81
59435;BME280;45241;49.768;8.636;2022-11-15T14:19:02;99309.56;;;16.83;77.57
59435;BME280;45241;49.768;8.636;2022-11-15T14:21:27;99302.47;;;17.03;76.88
59435;BME280;45241;49.768;8.636;2022-11-15T14:23:53;99309.97;;;16.96;80.73
59435;BME280;45241;49.768;8.636;2022-11-15T14:28:52;99307.81;;;16.71;83.35
59435;BME280;45241;49.768;8.636;2022-11-15T14:31:17;99301.09;;;16.74;79.51
59435;BME280;45241;49.768;8.636;2022-11-15T14:33:44;99297.31;;;16.75;79.05